sensor_id;sensor_type;location;lat;lon;timestamp;pressure;altitude;pressure_sealevel;temperature;humidity
46614;BME280;32338;50.430;6.806;2023-04-21T00:02:15;65851.97;;;3.93;100.00
46614;BME280;32338;50.430;6.806;2023-04-21T00:04:42;65858.91;;;4.01;100.00
46614;BME280;32338;50.430;6.806;2023-04-21T00:07:10;65869.22;;;4.13;100.00
46614;BME280;32338;50.430;6.806;2023-04-21T00:09:39;65886.72;;;4.25;100.00
46614;BME280;32338;50.430;6.806;2023-04-21T00:12:05;65891.97;;;4.32;100.00
46614;BME280;32338;50.430;6.806;2023-04-21T00:14:33;65876.13;;;4.22;100.00
46614;BME280;32338;50.430;6.806;2023-04-21T00:17:00;65878.16;;;4.21;100.00
46614;BME280;32338;50.430;6.806;2023-04-21T00:19:27;65874.81;;;4.18;100.00
46614;BME280;32338;50.430;6.806;2023-04-21T00:21:54;65884.47;;;4.22;100.00
46614;BME280;32338;50.430;6.806;2023-04-21T00:24:23;65889.72;;;4.30;100.00
46614;BME280;32338;50.430;6.806;2023-04-21T00:26:49;65880.41;;;4.24;100.00
46614;BME280;32338;50.430;6.806;2023-04-21T00:29:16;65878.53;;;4.19;100.00
46614;BME280;32338;50.430;6.806;2023-04-21T00:31:44;65882.63;;;4.26;100.00
46614;BME280;32338;50.430;6.806;2023-04-21T00:34:10;65891.97;;;4.32;100.00
46614;BME280;32338;50.430;6.806;2023-04-21T00:36:37;65894.97;;;4.37;100.00
46614;BME280;32338;50.430;6.806;2023-04-21T00:39:03;65889.38;;;4.32;100.00
46614;BME280;32338;50.430;6.806;2023-04-21T00:41:31;65889.16;;;4.29;100.00
46614;BME280;32338;50.430;6.806;2023-04-21T00:44:02;65875.16;;;4.16;100.00
46614;BME280;32338;50.430;6.806;2023-04-21T00:46:29;65875.28;;;4.12;100.00
46614;BME280;32338;50.430;6.806;2023-04-21T00:48:57;65875.50;;;4.14;100.00
46614;BME280;32338;50.430;6.806;2023-04-21T00:51:25;65873.13;;;4.17;100.00
46614;BME280;32338;50.430;6.806;2023-04-21T00:53:53;65881.69;;;4.20;100.00
46614;BME280;32338;50.430;6.806;2023-04-21T00:56:20;65870.69;;;4.12;100.00
46614;BME280;32338;50.430;6.806;2023-04-21T00:58:47;65886.34;;;4.27;100.00
46614;BME280;32338;50.430;6.806;2023-04-21T01:01:14;65885.81;;;4.26;100.00
46614;BME280;32338;50.430;6.806;2023-04-21T01:03:41;65894.97;;;4.37;100.00
46614;BME280;32338;50.430;6.806;2023-04-21T01:06:09;65885.47;;;4.28;100.00
46614;BME280;32338;50.430;6.806;2023-04-21T01:08:36;65865.84;;;4.10;100.00
46614;BME280;32338;50.430;6.806;2023-04-21T01:11:08;65847.56;;;3.96;100.00
46614;BME280;32338;50.430;6.806;2023-04-21T01:13:36;65842.88;;;3.89;100.00
46614;BME280;32338;50.430;6.806;2023-04-21T01:16:03;65845.13;;;3.91;100.00
46614;BME280;32338;50.430;6.806;2023-04-21T01:18:30;65853.31;;;3.96;100.00
46614;BME280;32338;50.430;6.806;2023-04-21T01:20:57;65865.63;;;4.08;100.00
46614;BME280;32338;50.430;6.806;2023-04-21T01:23:25;65868.09;;;4.12;100.00
46614;BME280;32338;50.430;6.806;2023-04-21T01:25:52;65874.59;;;4.16;100.00
46614;BME280;32338;50.430;6.806;2023-04-21T01:28:20;65858.91;;;4.01;100.00
46614;BME280;32338;50.430;6.806;2023-04-21T01:30:47;65852.75;;;3.96;100.00
46614;BME280;32338;50.430;6.806;2023-04-21T01:33:14;65850.16;;;3.96;100.00
46614;BME280;32338;50.430;6.806;2023-04-21T01:35:41;65838.94;;;3.85;100.00
46614;BME280;32338;50.430;6.806;2023-04-21T01:38:07;65851.97;;;3.93;100.00
46614;BME280;32338;50.430;6.806;2023-04-21T01:40:36;65839.31;;;3.83;100.00
46614;BME280;32338;50.430;6.806;2023-04-21T01:43:02;65830.34;;;3.75;100.00
46614;BME280;32338;50.430;6.806;2023-04-21T01:45:29;65827.00;;;3.72;100.00
46614;BME280;32338;50.430;6.806;2023-04-21T01:47:56;65834.47;;;3.81;100.00
46614;BME280;32338;50.430;6.806;2023-04-21T01:50:23;65838.53;;;3.80;100.00
46614;BME280;32338;50.430;6.806;2023-04-21T01:52:49;65829.63;;;3.79;100.00
46614;BME280;32338;50.430;6.806;2023-04-21T01:55:16;65832.59;;;3.77;100.00
46614;BME280;32338;50.430;6.806;2023-04-21T01:57:44;65821.75;;;3.65;100.00
46614;BME280;32338;50.430;6.806;2023-04-21T02:00:12;65818.38;;;3.62;100.00
46614;BME280;32338;50.430;6.806;2023-04-21T02:02:38;65818.94;;;3.62;100.00
46614;BME280;32338;50.430;6.806;2023-04-21T02:05:06;65826.84;;;3.77;100.00
46614;BME280;32338;50.430;6.806;2023-04-21T02:07:32;65834.63;;;3.77;100.00
46614;BME280;32338;50.430;6.806;2023-04-21T02:09:59;65826.63;;;3.74;100.00
46614;BME280;32338;50.430;6.806;2023-04-21T02:12:26;65823.28;;;3.71;100.00
46614;BME280;32338;50.430;6.806;2023-04-21T02:14:54;65825.09;;;3.68;100.00
46614;BME280;32338;50.430;6.806;2023-04-21T02:17:20;65828.88;;;3.76;100.00
46614;BME280;32338;50.430;6.806;2023-04-21T02:19:47;65822.72;;;3.70;100.00
46614;BME280;32338;50.430;6.806;2023-04-21T02:22:13;65814.53;;;3.65;100.00
46614;BME280;32338;50.430;6.806;2023-04-21T02:24:40;65808.72;;;3.57;100.00
46614;BME280;32338;50.430;6.806;2023-04-21T02:27:07;65805.72;;;3.52;100.00
46614;BME280;32338;50.430;6.806;2023-04-21T02:29:33;65816.91;;;3.63;100.00
46614;BME280;32338;50.430;6.806;2023-04-21T02:32:01;65819.28;;;3.60;100.00
46614;BME280;32338;50.430;6.806;2023-04-21T02:34:28;65810.75;;;3.57;100.00
46614;BME280;32338;50.430;6.806;2023-04-21T02:36:54;65804.78;;;3.54;100.00
46614;BME280;32338;50.430;6.806;2023-04-21T02:39:21;65804.03;;;3.51;100.00
46614;BME280;32338;50.430;6.806;2023-04-21T02:41:47;65820.47;;;3.68;100.00
46614;BME280;32338;50.430;6.806;2023-04-21T02:44:14;65831.47;;;3.76;100.00
46614;BME280;32338;50.430;6.806;2023-04-21T02:46:40;65847.13;;;3.90;100.00
46614;BME280;32338;50.430;6.806;2023-04-21T02:49:09;65838.19;;;3.82;100.00
46614;BME280;32338;50.430;6.806;2023-04-21T02:51:36;65838.91;;;3.78;100.00
46614;BME280;32338;50.430;6.806;2023-04-21T02:54:03;65828.31;;;3.76;100.00
46614;BME280;32338;50.430;6.806;2023-04-21T02:56:29;65825.50;;;3.73;100.00
46614;BME280;32338;50.430;6.806;2023-04-21T02:58:58;65837.41;;;3.79;100.00
46614;BME280;32338;50.430;6.806;2023-04-21T03:01:25;65837.06;;;3.81;100.00
46614;BME280;32338;50.430;6.806;2023-04-21T03:03:51;65835.19;;;3.77;100.00
46614;BME280;32338;50.430;6.806;2023-04-21T03:06:19;65832.03;;;3.77;100.00
46614;BME280;32338;50.430;6.806;2023-04-21T03:08:46;65846.38;;;3.87;100.00
46614;BME280;32338;50.430;6.806;2023-04-21T03:11:12;65849.38;;;3.93;100.00
46614;BME280;32338;50.430;6.806;2023-04-21T03:13:39;65825.28;;;3.70;100.00
46614;BME280;32338;50.430;6.806;2023-04-21T03:16:06;65811.88;;;3.58;100.00
46614;BME280;32338;50.430;6.806;2023-04-21T03:18:33;65810.56;;;3.54;100.00
46614;BME280;32338;50.430;6.806;2023-04-21T03:21:00;65814.31;;;3.63;100.00
46614;BME280;32338;50.430;6.806;2023-04-21T03:23:28;65822.50;;;3.68;100.00
46614;BME280;32338;50.430;6.806;2023-04-21T03:25:55;65816.34;;;3.62;100.00
46614;BME280;32338;50.430;6.806;2023-04-21T03:28:21;65799.53;;;3.47;100.00
46614;BME280;32338;50.430;6.806;2023-04-21T03:30:48;65781.09;;;3.30;100.00
46614;BME280;32338;50.430;6.806;2023-04-21T03:33:14;65771.34;;;3.18;100.00
46614;BME280;32338;50.430;6.806;2023-04-21T03:35:41;65768.56;;;3.16;100.00
46614;BME280;32338;50.430;6.806;2023-04-21T03:38:08;65763.16;;;3.13;100.00
46614;BME280;32338;50.430;6.806;2023-04-21T03:40:36;65761.69;;;3.14;100.00
46614;BME280;32338;50.430;6.806;2023-04-21T03:43:02;65764.84;;;3.15;100.00
46614;BME280;32338;50.430;6.806;2023-04-21T03:45:29;65767.78;;;3.13;100.00
46614;BME280;32338;50.430;6.806;2023-04-21T03:47:55;65766.09;;;3.11;100.00
46614;BME280;32338;50.430;6.806;2023-04-21T03:50:22;65764.63;;;3.12;100.00
46614;BME280;32338;50.430;6.806;2023-04-21T03:52:49;65759.25;;;3.10;100.00
46614;BME280;32338;50.430;6.806;2023-04-21T03:55:15;65762.06;;;3.12;100.00
46614;BME280;32338;50.430;6.806;2023-04-21T03:57:43;65761.13;;;3.14;100.00
46614;BME280;32338;50.430;6.806;2023-04-21T04:00:11;65770.44;;;3.20;100.00
46614;BME280;32338;50.430;6.806;2023-04-21T04:02:38;65778.97;;;3.23;100.00
46614;BME280;32338;50.430;6.806;2023-04-21T04:05:06;65767.50;;;3.22;100.00
46614;BME280;32338;50.430;6.806;2023-04-21T04:07:33;65770.22;;;3.17;100.00
46614;BME280;32338;50.430;6.806;2023-04-21T04:09:59;65775.28;;;3.22;100.00
46614;BME280;32338;50.430;6.806;2023-04-21T04:12:26;65779.81;;;3.33;100.00
46614;BME280;32338;50.430;6.806;2023-04-21T04:14:54;65784.44;;;3.33;100.00
46614;BME280;32338;50.430;6.806;2023-04-21T04:17:20;65788.13;;;3.34;100.00
46614;BME280;32338;50.430;6.806;2023-04-21T04:19:47;65802.34;;;3.49;100.00
46614;BME280;32338;50.430;6.806;2023-04-21T04:22:14;65802.91;;;3.50;100.00
46614;BME280;32338;50.430;6.806;2023-04-21T04:24:40;65787.59;;;3.33;100.00
46614;BME280;32338;50.430;6.806;2023-04-21T04:27:09;65776.59;;;3.26;100.00
46614;BME280;32338;50.430;6.806;2023-04-21T04:29:38;65778.63;;;3.25;100.00
46614;BME280;32338;50.430;6.806;2023-04-21T04:32:06;65786.59;;;3.28;100.00
46614;BME280;32338;50.430;6.806;2023-04-21T04:34:33;65778.50;;;3.30;100.00
46614;BME280;32338;50.430;6.806;2023-04-21T04:37:01;65776.59;;;3.26;100.00
46614;BME280;32338;50.430;6.806;2023-04-21T04:39:28;65775.47;;;3.24;100.00
46614;BME280;32338;50.430;6.806;2023-04-21T04:41:55;65766.19;;;3.18;100.00
46614;BME280;32338;50.430;6.806;2023-04-21T04:44:22;65753.88;;;3.07;100.00
46614;BME280;32338;50.430;6.806;2023-04-21T04:46:50;65749.16;;;3.00;100.00
46614;BME280;32338;50.430;6.806;2023-04-21T04:49:18;65760.94;;;3.11;100.00
46614;BME280;32338;50.430;6.806;2023-04-21T04:51:44;65759.81;;;3.10;100.00
46614;BME280;32338;50.430;6.806;2023-04-21T04:54:11;65755.47;;;3.01;100.00
46614;BME280;32338;50.430;6.806;2023-04-21T04:56:37;65753.44;;;3.02;100.00
46614;BME280;32338;50.430;6.806;2023-04-21T04:59:04;65745.25;;;2.97;100.00
46614;BME280;32338;50.430;6.806;2023-04-21T05:01:31;65742.44;;;2.94;100.00
46614;BME280;32338;50.430;6.806;2023-04-21T05:03:57;65742.25;;;2.91;100.00
46614;BME280;32338;50.430;6.806;2023-04-21T05:06:25;65748.75;;;2.95;100.00
46614;BME280;32338;50.430;6.806;2023-04-21T05:08:54;65744.16;;;2.96;100.00
46614;BME280;32338;50.430;6.806;2023-04-21T05:11:20;65746.72;;;2.96;100.00
46614;BME280;32338;50.430;6.806;2023-04-21T05:13:47;65743.03;;;2.95;100.00
46614;BME280;32338;50.430;6.806;2023-04-21T05:16:13;65746.56;;;3.00;100.00
46614;BME280;32338;50.430;6.806;2023-04-21T05:18:40;65754.22;;;3.05;100.00
46614;BME280;32338;50.430;6.806;2023-04-21T05:21:07;65770.03;;;3.15;100.00
46614;BME280;32338;50.430;6.806;2023-04-21T05:23:34;65765.41;;;3.15;100.00
46614;BME280;32338;50.430;6.806;2023-04-21T05:26:01;65763.16;;;3.13;100.00
46614;BME280;32338;50.430;6.806;2023-04-21T05:28:28;65776.59;;;3.26;100.00
46614;BME280;32338;50.430;6.806;2023-04-21T05:30:55;65822.66;;;3.63;100.00
46614;BME280;32338;50.430;6.806;2023-04-21T05:33:22;65866.56;;;4.06;100.00
46614;BME280;32338;50.430;6.806;2023-04-21T05:35:50;65891.75;;;4.29;100.00
46614;BME280;32338;50.430;6.806;2023-04-21T05:38:17;65880.22;;;4.21;100.00
46614;BME280;32338;50.430;6.806;2023-04-21T05:40:51;65861.00;;;4.08;100.00
46614;BME280;32338;50.430;6.806;2023-04-21T05:43:18;65853.88;;;3.97;100.00
46614;BME280;32338;50.430;6.806;2023-04-21T05:45:44;65852.19;;;3.95;100.00
46614;BME280;32338;50.430;6.806;2023-04-21T05:48:11;65838.19;;;3.82;100.00
46614;BME280;32338;50.430;6.806;2023-04-21T05:50:38;65836.50;;;3.81;100.00
46614;BME280;32338;50.430;6.806;2023-04-21T05:53:04;65825.50;;;3.73;100.00
46614;BME280;32338;50.430;6.806;2023-04-21T05:55:32;65824.19;;;3.69;100.00
46614;BME280;32338;50.430;6.806;2023-04-21T05:58:00;65822.72;;;3.70;100.00
46614;BME280;32338;50.430;6.806;2023-04-21T06:00:28;65827.19;;;3.75;100.00
46614;BME280;32338;50.430;6.806;2023-04-21T06:02:55;65830.91;;;3.76;100.00
46614;BME280;32338;50.430;6.806;2023-04-21T06:05:21;65833.72;;;3.78;100.00
46614;BME280;32338;50.430;6.806;2023-04-21T06:07:48;65837.28;;;3.84;100.00
46614;BME280;32338;50.430;6.806;2023-04-21T06:10:16;65849.19;;;3.90;100.00
46614;BME280;32338;50.430;6.806;2023-04-21T06:12:43;65855.56;;;3.98;100.00
46614;BME280;32338;50.430;6.806;2023-04-21T06:15:11;65871.81;;;4.13;100.00
46614;BME280;32338;50.430;6.806;2023-04-21T06:17:37;65880.34;;;4.16;100.00
46614;BME280;32338;50.430;6.806;2023-04-21T06:20:06;65879.50;;;4.25;100.00
46614;BME280;32338;50.430;6.806;2023-04-21T06:22:33;65902.41;;;4.39;100.00
46614;BME280;32338;50.430;6.806;2023-04-21T06:24:59;65906.75;;;4.48;100.00
46614;BME280;32338;50.430;6.806;2023-04-21T06:27:26;65915.50;;;4.53;100.00
46614;BME280;32338;50.430;6.806;2023-04-21T06:29:53;65917.72;;;4.55;100.00
46614;BME280;32338;50.430;6.806;2023-04-21T06:32:21;65919.44;;;4.57;100.00
46614;BME280;32338;50.430;6.806;2023-04-21T06:34:48;65928.59;;;4.68;100.00
46614;BME280;32338;50.430;6.806;2023-04-21T06:37:14;65936.25;;;4.73;100.00
46614;BME280;32338;50.430;6.806;2023-04-21T06:39:41;65944.28;;;4.82;100.00
46614;BME280;32338;50.430;6.806;2023-04-21T06:42:07;65952.69;;;4.90;100.00
46614;BME280;32338;50.430;6.806;2023-04-21T06:44:34;65950.81;;;4.86;100.00
46614;BME280;32338;50.430;6.806;2023-04-21T06:47:02;65955.84;;;4.91;100.00
46614;BME280;32338;50.430;6.806;2023-04-21T06:49:30;65944.84;;;4.83;100.00
46614;BME280;32338;50.430;6.806;2023-04-21T06:51:58;65954.94;;;4.92;100.00
46614;BME280;32338;50.430;6.806;2023-04-21T06:54:25;65958.44;;;4.91;100.00
46614;BME280;32338;50.430;6.806;2023-04-21T06:56:51;65979.41;;;5.12;100.00
46614;BME280;32338;50.430;6.806;2023-04-21T06:59:18;65984.09;;;5.19;100.00
46614;BME280;32338;50.430;6.806;2023-04-21T07:01:44;65989.84;;;5.19;100.00
46614;BME280;32338;50.430;6.806;2023-04-21T07:04:13;66000.16;;;5.31;100.00
46614;BME280;32338;50.430;6.806;2023-04-21T07:06:41;66013.28;;;5.46;100.00
46614;BME280;32338;50.430;6.806;2023-04-21T07:09:08;66033.63;;;5.60;100.00
46614;BME280;32338;50.430;6.806;2023-04-21T07:11:34;66036.44;;;5.69;100.00
46614;BME280;32338;50.430;6.806;2023-04-21T07:14:01;66056.44;;;5.85;100.00
46614;BME280;32338;50.430;6.806;2023-04-21T07:16:27;66055.69;;;5.82;100.00
46614;BME280;32338;50.430;6.806;2023-04-21T07:18:54;66062.97;;;5.89;100.00
46614;BME280;32338;50.430;6.806;2023-04-21T07:21:21;66062.44;;;5.89;100.00
46614;BME280;32338;50.430;6.806;2023-04-21T07:23:49;66071.97;;;5.97;100.00
46614;BME280;32338;50.430;6.806;2023-04-21T07:26:15;66078.72;;;6.04;100.00
46614;BME280;32338;50.430;6.806;2023-04-21T07:28:42;66092.75;;;6.16;100.00
46614;BME280;32338;50.430;6.806;2023-04-21T07:31:09;66071.28;;;6.02;100.00
46614;BME280;32338;50.430;6.806;2023-04-21T07:33:35;66078.72;;;6.04;100.00
46614;BME280;32338;50.430;6.806;2023-04-21T07:36:02;66082.09;;;6.07;100.00
46614;BME280;32338;50.430;6.806;2023-04-21T07:38:29;66096.09;;;6.20;100.00
46614;BME280;32338;50.430;6.806;2023-04-21T07:40:57;66096.34;;;6.22;100.00
46614;BME280;32338;50.430;6.806;2023-04-21T07:43:24;66107.16;;;6.27;100.00
46614;BME280;32338;50.430;6.806;2023-04-21T07:45:51;66089.94;;;6.14;100.00
46614;BME280;32338;50.430;6.806;2023-04-21T07:48:17;66069.03;;;5.99;100.00
46614;BME280;32338;50.430;6.806;2023-04-21T07:50:44;66083.22;;;6.08;100.00
46614;BME280;32338;50.430;6.806;2023-04-21T07:53:10;66088.63;;;6.10;100.00
46614;BME280;32338;50.430;6.806;2023-04-21T07:55:37;66091.63;;;6.15;100.00
46614;BME280;32338;50.430;6.806;2023-04-21T07:58:05;66112.38;;;6.35;100.00
46614;BME280;32338;50.430;6.806;2023-04-21T08:00:34;66118.03;;;6.40;100.00
46614;BME280;32338;50.430;6.806;2023-04-21T08:03:00;66126.63;;;6.50;100.00
46614;BME280;32338;50.430;6.806;2023-04-21T08:05:27;66141.03;;;6.61;100.00
46614;BME280;32338;50.430;6.806;2023-04-21T08:07:55;66147.41;;;6.69;100.00
46614;BME280;32338;50.430;6.806;2023-04-21T08:10:22;66136.94;;;6.62;100.00
46614;BME280;32338;50.430;6.806;2023-04-21T08:12:49;66148.34;;;6.68;100.00
46614;BME280;32338;50.430;6.806;2023-04-21T08:15:17;66147.22;;;6.67;100.00
46614;BME280;32338;50.430;6.806;2023-04-21T08:17:44;66153.94;;;6.73;100.00
46614;BME280;32338;50.430;6.806;2023-04-21T08:20:11;66168.19;;;6.88;100.00
46614;BME280;32338;50.430;6.806;2023-04-21T08:22:38;66174.00;;;6.96;100.00
46614;BME280;32338;50.430;6.806;2023-04-21T08:25:06;66168.38;;;6.91;100.00
46614;BME280;32338;50.430;6.806;2023-04-21T08:27:32;66182.78;;;7.02;100.00
46614;BME280;32338;50.430;6.806;2023-04-21T08:29:59;66195.69;;;7.13;100.00
46614;BME280;32338;50.430;6.806;2023-04-21T08:32:27;66194.22;;;7.14;100.00
46614;BME280;32338;50.430;6.806;2023-04-21T08:34:54;66209.19;;;7.26;100.00
46614;BME280;32338;50.430;6.806;2023-04-21T08:37:20;66214.97;;;7.26;100.00
46614;BME280;32338;50.430;6.806;2023-04-21T08:39:47;66202.88;;;7.25;100.00
46614;BME280;32338;50.430;6.806;2023-04-21T08:42:15;66223.59;;;7.37;100.00
46614;BME280;32338;50.430;6.806;2023-04-21T08:44:43;66253.94;;;7.65;100.00
46614;BME280;32338;50.430;6.806;2023-04-21T08:47:10;66259.00;;;7.69;100.00
46614;BME280;32338;50.430;6.806;2023-04-21T08:49:40;66254.34;;;7.70;100.00
46614;BME280;32338;50.430;6.806;2023-04-21T08:52:10;66279.25;;;7.88;100.00
46614;BME280;32338;50.430;6.806;2023-04-21T08:54:37;66291.25;;;8.01;100.00
46614;BME280;32338;50.430;6.806;2023-04-21T08:57:04;66297.59;;;8.02;100.00
46614;BME280;32338;50.430;6.806;2023-04-21T08:59:30;66283.38;;;7.94;100.00
46614;BME280;32338;50.430;6.806;2023-04-21T09:02:10;66291.41;;;7.97;100.00
46614;BME280;32338;50.430;6.806;2023-04-21T09:04:41;66317.47;;;8.23;100.00
46614;BME280;32338;50.430;6.806;2023-04-21T09:07:09;66298.19;;;8.10;100.00
46614;BME280;32338;50.430;6.806;2023-04-21T09:09:51;66303.19;;;8.07;100.00
46614;BME280;32338;50.430;6.806;2023-04-21T09:12:18;66299.28;;;8.04;100.00
46614;BME280;32338;50.430;6.806;2023-04-21T09:14:44;66319.34;;;8.27;100.00
46614;BME280;32338;50.430;6.806;2023-04-21T09:17:11;66327.44;;;8.37;100.00
46614;BME280;32338;50.430;6.806;2023-04-21T09:19:38;66324.25;;;8.36;100.00
46614;BME280;32338;50.430;6.806;2023-04-21T09:22:06;66331.53;;;8.36;100.00
46614;BME280;32338;50.430;6.806;2023-04-21T09:24:32;66346.00;;;8.54;100.00
46614;BME280;32338;50.430;6.806;2023-04-21T09:27:01;66360.44;;;8.65;100.00
46614;BME280;32338;50.430;6.806;2023-04-21T09:29:28;66369.06;;;8.75;100.00
46614;BME280;32338;50.430;6.806;2023-04-21T09:31:55;66382.56;;;8.87;100.00
46614;BME280;32338;50.430;6.806;2023-04-21T09:34:23;66391.19;;;8.90;100.00
46614;BME280;32338;50.430;6.806;2023-04-21T09:36:57;66395.13;;;8.94;100.00
46614;BME280;32338;50.430;6.806;2023-04-21T09:39:27;66409.38;;;9.09;100.00
46614;BME280;32338;50.430;6.806;2023-04-21T09:41:54;66412.75;;;9.13;100.00
46614;BME280;32338;50.430;6.806;2023-04-21T09:44:21;66418.59;;;9.20;100.00
46614;BME280;32338;50.430;6.806;2023-04-21T09:46:49;66422.69;;;9.19;100.00
46614;BME280;32338;50.430;6.806;2023-04-21T09:49:17;66426.25;;;9.25;100.00
46614;BME280;32338;50.430;6.806;2023-04-21T09:51:44;66431.91;;;9.30;100.00
46614;BME280;32338;50.430;6.806;2023-04-21T09:54:14;66447.66;;;9.45;100.00
46614;BME280;32338;50.430;6.806;2023-04-21T09:56:42;66445.97;;;9.43;100.00
46614;BME280;32338;50.430;6.806;2023-04-21T09:59:18;66451.38;;;9.46;100.00
46614;BME280;32338;50.430;6.806;2023-04-21T10:01:47;66463.03;;;9.61;100.00
46614;BME280;32338;50.430;6.806;2023-04-21T10:04:16;66485.94;;;9.80;100.00
46614;BME280;32338;50.430;6.806;2023-04-21T10:06:44;66497.00;;;9.87;100.00
46614;BME280;32338;50.430;6.806;2023-04-21T10:09:12;66508.47;;;10.00;100.00
46614;BME280;32338;50.430;6.806;2023-04-21T10:11:40;66514.84;;;10.09;100.00
46614;BME280;32338;50.430;6.806;2023-04-21T10:14:08;66535.84;;;10.23;100.00
46614;BME280;32338;50.430;6.806;2023-04-21T10:16:35;66536.25;;;10.28;100.00
46614;BME280;32338;50.430;6.806;2023-04-21T10:19:21;66534.00;;;10.26;100.00
46614;BME280;32338;50.430;6.806;2023-04-21T10:21:49;66543.38;;;10.32;100.00
46614;BME280;32338;50.430;6.806;2023-04-21T10:24:15;66547.88;;;10.36;100.00
46614;BME280;32338;50.430;6.806;2023-04-21T10:26:42;66562.19;;;10.52;100.00
46614;BME280;32338;50.430;6.806;2023-04-21T10:29:10;66584.72;;;10.73;100.00
46614;BME280;32338;50.430;6.806;2023-04-21T10:31:49;66586.97;;;10.75;100.00
46614;BME280;32338;50.430;6.806;2023-04-21T10:34:21;66578.88;;;10.65;100.00
46614;BME280;32338;50.430;6.806;2023-04-21T10:39:33;66602.19;;;10.89;100.00
46614;BME280;32338;50.430;6.806;2023-04-21T10:42:22;66610.63;;;10.96;100.00
46614;BME280;32338;50.430;6.806;2023-04-21T10:45:10;66614.38;;;10.97;100.00
46614;BME280;32338;50.430;6.806;2023-04-21T10:47:46;66610.09;;;10.96;100.00
46614;BME280;32338;50.430;6.806;2023-04-21T10:50:17;66612.91;;;10.98;100.00
46614;BME280;32338;50.430;6.806;2023-04-21T10:52:50;66633.19;;;11.17;100.00
46614;BME280;32338;50.430;6.806;2023-04-21T10:55:17;66647.09;;;11.27;100.00
46614;BME280;32338;50.430;6.806;2023-04-21T10:57:45;66634.69;;;11.16;100.00
46614;BME280;32338;50.430;6.806;2023-04-21T11:00:18;66622.84;;;11.05;100.00
46614;BME280;32338;50.430;6.806;2023-04-21T11:02:56;66655.34;;;11.32;100.00
46614;BME280;32338;50.430;6.806;2023-04-21T11:05:30;66675.47;;;11.48;100.00
46614;BME280;32338;50.430;6.806;2023-04-21T11:08:06;66667.59;;;11.48;100.00
46614;BME280;32338;50.430;6.806;2023-04-21T11:10:47;66692.19;;;11.68;100.00
46614;BME280;32338;50.430;6.806;2023-04-21T11:13:14;66690.13;;;11.69;100.00
46614;BME280;32338;50.430;6.806;2023-04-21T11:15:54;66709.13;;;11.84;100.00
46614;BME280;32338;50.430;6.806;2023-04-21T11:18:31;66735.28;;;12.10;100.00
46614;BME280;32338;50.430;6.806;2023-04-21T11:21:06;66755.75;;;12.24;100.00
46614;BME280;32338;50.430;6.806;2023-04-21T11:23:32;66771.56;;;12.39;100.00
46614;BME280;32338;50.430;6.806;2023-04-21T11:25:59;66771.00;;;12.38;100.00
46614;BME280;32338;50.430;6.806;2023-04-21T11:28:25;66770.63;;;12.40;100.00
46614;BME280;32338;50.430;6.806;2023-04-21T11:30:53;66784.75;;;12.53;100.00
46614;BME280;32338;50.430;6.806;2023-04-21T11:33:20;66787.56;;;12.56;96.81
46614;BME280;32338;50.430;6.806;2023-04-21T11:35:47;66772.31;;;12.42;94.10
46614;BME280;32338;50.430;6.806;2023-04-21T11:38:15;66765.00;;;12.35;99.98
46614;BME280;32338;50.430;6.806;2023-04-21T11:40:44;66779.09;;;12.48;100.00
46614;BME280;32338;50.430;6.806;2023-04-21T11:43:11;66806.38;;;12.75;100.00
46614;BME280;32338;50.430;6.806;2023-04-21T11:45:39;66825.38;;;12.90;100.00
46614;BME280;32338;50.430;6.806;2023-04-21T11:48:13;66846.84;;;13.10;100.00
46614;BME280;32338;50.430;6.806;2023-04-21T11:50:45;66867.91;;;13.32;100.00
46614;BME280;32338;50.430;6.806;2023-04-21T11:53:13;66845.72;;;13.09;93.48
46614;BME280;32338;50.430;6.806;2023-04-21T11:55:41;66855.31;;;13.18;100.00
46614;BME280;32338;50.430;6.806;2023-04-21T11:58:08;66892.03;;;13.51;95.44
46614;BME280;32338;50.430;6.806;2023-04-21T12:00:36;66899.38;;;13.58;87.23
46614;BME280;32338;50.430;6.806;2023-04-21T12:03:07;66891.47;;;13.51;84.53
46614;BME280;32338;50.430;6.806;2023-04-21T12:05:36;66906.34;;;13.67;97.88
46614;BME280;32338;50.430;6.806;2023-04-21T12:08:02;66920.47;;;13.79;93.66
46614;BME280;32338;50.430;6.806;2023-04-21T12:10:30;66931.97;;;13.85;82.75
46614;BME280;32338;50.430;6.806;2023-04-21T12:12:58;66954.75;;;14.08;87.03
46614;BME280;32338;50.430;6.806;2023-04-21T12:15:24;66963.97;;;14.19;87.21
46614;BME280;32338;50.430;6.806;2023-04-21T12:17:52;66926.31;;;13.80;78.44
46614;BME280;32338;50.430;6.806;2023-04-21T12:20:20;66877.53;;;13.40;79.63
46614;BME280;32338;50.430;6.806;2023-04-21T12:22:49;66876.00;;;13.34;84.75
46614;BME280;32338;50.430;6.806;2023-04-21T12:25:16;66893.75;;;13.53;100.00
46614;BME280;32338;50.430;6.806;2023-04-21T12:27:47;66947.41;;;14.02;100.00
46614;BME280;32338;50.430;6.806;2023-04-21T12:30:14;66961.72;;;14.10;78.58
46614;BME280;32338;50.430;6.806;2023-04-21T12:32:40;67004.69;;;14.56;87.50
46614;BME280;32338;50.430;6.806;2023-04-21T12:35:07;66962.09;;;14.15;73.54
46614;BME280;32338;50.430;6.806;2023-04-21T12:37:34;66969.84;;;14.20;86.57
46614;BME280;32338;50.430;6.806;2023-04-21T12:40:03;67009.78;;;14.61;100.00
46614;BME280;32338;50.430;6.806;2023-04-21T12:42:31;67039.78;;;14.81;100.00
46614;BME280;32338;50.430;6.806;2023-04-21T12:44:57;67037.50;;;14.86;94.64
46614;BME280;32338;50.430;6.806;2023-04-21T12:47:24;67008.47;;;14.57;100.00
46614;BME280;32338;50.430;6.806;2023-04-21T12:49:51;67001.28;;;14.53;98.22
46614;BME280;32338;50.430;6.806;2023-04-21T12:52:17;66972.84;;;14.25;84.70
46614;BME280;32338;50.430;6.806;2023-04-21T12:54:44;66995.25;;;14.43;84.82
46614;BME280;32338;50.430;6.806;2023-04-21T12:57:12;66968.88;;;14.21;87.92
46614;BME280;32338;50.430;6.806;2023-04-21T12:59:39;66997.53;;;14.52;79.88
46614;BME280;32338;50.430;6.806;2023-04-21T13:02:06;67008.47;;;14.57;85.96
46614;BME280;32338;50.430;6.806;2023-04-21T13:04:33;66957.97;;;14.16;82.13
46614;BME280;32338;50.430;6.806;2023-04-21T13:07:00;66992.25;;;14.45;88.06